createdAt,value
2018-10-07T00:00:51.339Z,89.00
2018-10-07T00:03:25.835Z,89.00
2018-10-07T00:06:00.489Z,88.90
2018-10-07T00:08:34.890Z,89.00
2018-10-07T00:11:09.536Z,89.10
2018-10-07T00:13:44.264Z,89.10
2018-10-07T00:16:18.894Z,89.20
2018-10-07T00:18:53.585Z,89.20
2018-10-07T00:21:28.106Z,89.20
2018-10-07T00:24:02.812Z,89.30
2018-10-07T00:26:37.376Z,89.30
2018-10-07T00:29:12.184Z,89.40
2018-10-07T00:31:52.710Z,89.40
2018-10-07T00:34:28.041Z,89.60
2018-10-07T00:37:02.154Z,90.10
2018-10-07T00:39:36.660Z,89.70
2018-10-07T00:42:11.643Z,89.80
2018-10-07T00:44:45.861Z,89.80
2018-10-07T00:47:20.511Z,89.80
2018-10-07T00:49:55.164Z,89.80
2018-10-07T00:52:29.742Z,89.90
2018-10-07T00:55:04.364Z,89.90
2018-10-07T00:57:38.830Z,89.90
2018-10-07T01:00:13.306Z,90.00
2018-10-07T01:02:48.148Z,90.00
2018-10-07T01:05:22.730Z,90.00
2018-10-07T01:07:57.026Z,90.00
2018-10-07T01:10:31.596Z,90.10
2018-10-07T01:13:06.306Z,90.00
2018-10-07T01:15:41.050Z,90.10
2018-10-07T01:18:15.247Z,90.10
2018-10-07T01:20:50.194Z,90.00
2018-10-07T01:23:24.713Z,90.00
2018-10-07T01:25:59.092Z,90.00
2018-10-07T01:28:33.850Z,90.00
2018-10-07T01:31:08.413Z,90.00
2018-10-07T01:33:42.989Z,90.00
2018-10-07T01:36:18.068Z,90.20
2018-10-07T01:38:52.185Z,89.80
2018-10-07T01:41:26.680Z,89.70
2018-10-07T01:44:01.443Z,89.70
2018-10-07T01:46:35.882Z,89.70
2018-10-07T01:49:10.384Z,89.60
2018-10-07T01:51:44.964Z,89.60
2018-10-07T01:54:19.556Z,89.50
2018-10-07T01:56:54.090Z,89.50
2018-10-07T01:59:28.933Z,89.40
2018-10-07T02:02:03.312Z,89.50
2018-10-07T02:04:37.914Z,89.50
2018-10-07T02:07:12.586Z,89.40
2018-10-07T02:09:47.461Z,89.50
2018-10-07T02:12:21.920Z,89.60
2018-10-07T02:14:56.366Z,89.60
2018-10-07T02:17:30.995Z,89.60
2018-10-07T02:20:05.607Z,89.70
2018-10-07T02:22:40.252Z,89.70
2018-10-07T02:25:14.486Z,89.70
2018-10-07T02:27:49.145Z,89.60
2018-10-07T02:30:23.743Z,89.40
2018-10-07T02:32:58.625Z,89.50
2018-10-07T02:35:33.145Z,89.60
2018-10-07T02:38:07.625Z,89.70
2018-10-07T02:40:42.821Z,89.70
2018-10-07T02:43:17.012Z,90.10
2018-10-07T02:45:51.870Z,89.80
2018-10-07T02:48:26.985Z,89.80
2018-10-07T02:51:01.882Z,90.00
2018-10-07T02:53:36.321Z,90.00
2018-10-07T02:56:10.908Z,90.00
2018-10-07T02:58:45.798Z,90.00
2018-10-07T03:01:20.185Z,90.00
2018-10-07T03:03:54.647Z,90.00
2018-10-07T03:06:29.306Z,90.00
2018-10-07T03:09:05.173Z,90.00
2018-10-07T03:11:39.652Z,90.00
2018-10-07T03:14:13.960Z,90.00
2018-10-07T03:16:48.776Z,90.00
2018-10-07T03:19:23.146Z,89.70
2018-10-07T03:21:57.743Z,89.40
2018-10-07T03:24:32.496Z,89.30
2018-10-07T03:27:07.313Z,89.10
2018-10-07T03:29:41.571Z,89.10
2018-10-07T03:32:16.227Z,89.50
2018-10-07T03:34:50.609Z,88.50
2018-10-07T03:37:25.398Z,88.40
2018-10-07T03:39:59.508Z,88.30
2018-10-07T03:42:34.368Z,88.30
2018-10-07T03:45:08.682Z,88.40
2018-10-07T03:47:43.197Z,88.50
2018-10-07T03:50:17.717Z,88.60
2018-10-07T03:52:52.363Z,88.70
2018-10-07T03:55:27.043Z,88.90
2018-10-07T03:58:01.568Z,89.00
2018-10-07T04:00:36.176Z,89.00
2018-10-07T04:03:10.972Z,89.00
2018-10-07T04:05:45.526Z,89.10
2018-10-07T04:08:19.932Z,89.20
2018-10-07T04:10:54.592Z,89.10
2018-10-07T04:13:29.305Z,88.90
2018-10-07T04:16:04.034Z,88.80
2018-10-07T04:18:38.851Z,88.80
2018-10-07T04:21:13.195Z,88.70
2018-10-07T04:23:47.884Z,88.70
2018-10-07T04:26:22.284Z,89.50
2018-10-07T04:28:57.014Z,88.90
2018-10-07T04:31:31.519Z,89.00
2018-10-07T04:34:06.189Z,89.00
2018-10-07T04:36:40.854Z,89.10
2018-10-07T04:39:15.892Z,89.10
2018-10-07T04:41:50.972Z,89.10
2018-10-07T04:44:25.534Z,89.10
2018-10-07T04:47:00.014Z,89.20
2018-10-07T04:49:34.726Z,89.40
2018-10-07T04:52:09.081Z,89.50
2018-10-07T04:54:43.829Z,89.50
2018-10-07T04:57:18.441Z,89.50
2018-10-07T04:59:53.081Z,89.50
2018-10-07T05:02:27.688Z,89.50
2018-10-07T05:05:02.273Z,89.60
2018-10-07T05:07:37.070Z,89.70
2018-10-07T05:10:56.720Z,89.70
2018-10-07T05:13:53.044Z,89.70
2018-10-07T05:16:35.877Z,89.80
2018-10-07T05:19:10.289Z,90.00
2018-10-07T05:21:44.973Z,90.00
2018-10-07T05:24:19.528Z,90.10
2018-10-07T05:26:53.996Z,90.10
2018-10-07T05:29:28.468Z,90.10
2018-10-07T05:32:03.154Z,90.20
2018-10-07T05:34:38.129Z,90.20
2018-10-07T05:37:13.178Z,90.20
2018-10-07T05:39:47.796Z,90.30
2018-10-07T05:42:22.658Z,90.30
2018-10-07T05:44:57.114Z,90.40
2018-10-07T05:47:31.596Z,90.40
2018-10-07T05:50:06.121Z,90.40
2018-10-07T05:52:40.927Z,90.40
2018-10-07T05:55:15.560Z,90.40
2018-10-07T05:57:55.569Z,90.40
2018-10-07T06:00:30.897Z,90.40
2018-10-07T06:03:17.762Z,90.40
2018-10-07T06:05:52.565Z,90.30
2018-10-07T06:08:27.899Z,90.20
2018-10-07T06:11:02.234Z,90.10
2018-10-07T06:13:36.545Z,91.00
2018-10-07T06:16:11.381Z,90.70
2018-10-07T06:18:45.929Z,90.20
2018-10-07T06:21:20.737Z,89.20
2018-10-07T06:23:55.205Z,88.00
2018-10-07T06:26:29.874Z,87.40
2018-10-07T06:29:04.398Z,87.30
2018-10-07T06:31:39.185Z,87.30
2018-10-07T06:34:14.066Z,86.80
2018-10-07T06:36:49.299Z,86.50
2018-10-07T06:39:24.085Z,86.50
2018-10-07T06:41:59.324Z,86.70
2018-10-07T06:44:33.873Z,87.40
2018-10-07T06:47:08.479Z,87.70
2018-10-07T06:49:43.122Z,87.90
2018-10-07T06:52:17.675Z,87.10
2018-10-07T06:54:52.306Z,86.80
2018-10-07T06:57:26.826Z,86.10
2018-10-07T07:00:01.863Z,85.70
2018-10-07T07:02:37.027Z,86.00
2018-10-07T07:05:11.819Z,86.00
2018-10-07T07:07:46.114Z,85.80
2018-10-07T07:10:20.530Z,85.80
2018-10-07T07:12:55.176Z,85.10
2018-10-07T07:15:29.926Z,85.30
2018-10-07T07:18:05.025Z,85.20
2018-10-07T07:20:39.590Z,85.70
2018-10-07T07:23:14.214Z,84.60
2018-10-07T07:25:49.096Z,84.50
2018-10-07T07:28:23.704Z,83.30
2018-10-07T07:30:58.640Z,83.10
2018-10-07T07:33:33.297Z,82.60
2018-10-07T07:36:07.958Z,83.00
2018-10-07T07:38:42.649Z,83.30
2018-10-07T07:41:17.251Z,83.50
2018-10-07T07:43:51.749Z,83.70
2018-10-07T07:46:26.419Z,84.10
2018-10-07T07:49:00.995Z,84.30
2018-10-07T07:51:35.862Z,84.00
2018-10-07T07:54:10.686Z,83.80
2018-10-07T07:56:45.227Z,83.80
2018-10-07T07:59:19.853Z,83.70
2018-10-07T08:01:54.373Z,83.90
2018-10-07T08:04:29.122Z,83.70
2018-10-07T08:07:03.742Z,83.70
2018-10-07T08:09:38.479Z,83.30
2018-10-07T08:12:13.009Z,83.30
2018-10-07T08:14:47.749Z,82.90
2018-10-07T08:17:22.592Z,83.00
2018-10-07T08:19:57.009Z,83.00
2018-10-07T08:22:31.714Z,81.90
2018-10-07T08:25:06.380Z,81.60
2018-10-07T08:27:40.869Z,82.30
2018-10-07T08:30:15.345Z,82.10
2018-10-07T08:32:49.951Z,81.90
2018-10-07T08:35:24.495Z,81.40
2018-10-07T08:37:59.466Z,81.30
2018-10-07T08:40:33.898Z,81.50
2018-10-07T08:43:08.405Z,81.40
2018-10-07T08:45:43.297Z,81.40
2018-10-07T08:48:17.600Z,81.90
2018-10-07T08:50:52.092Z,82.40
2018-10-07T08:53:26.610Z,82.10
2018-10-07T08:56:01.474Z,81.20
2018-10-07T08:58:35.792Z,81.40
2018-10-07T09:01:10.385Z,81.30
2018-10-07T09:03:45.418Z,80.80
2018-10-07T09:06:20.242Z,80.40
2018-10-07T09:08:54.831Z,79.40
2018-10-07T09:11:29.395Z,77.80
2018-10-07T09:14:04.228Z,76.80
2018-10-07T09:16:38.342Z,76.60
2018-10-07T09:19:12.890Z,75.80
2018-10-07T09:21:47.591Z,74.80
2018-10-07T09:24:22.233Z,73.20
2018-10-07T09:26:56.720Z,72.60
2018-10-07T09:29:31.859Z,72.70
2018-10-07T09:32:07.342Z,71.60
2018-10-07T09:34:41.685Z,71.40
2018-10-07T09:37:16.275Z,69.70
2018-10-07T09:39:51.095Z,68.90
2018-10-07T09:42:26.033Z,70.30
2018-10-07T09:45:01.127Z,71.10
2018-10-07T09:47:35.941Z,70.50
2018-10-07T09:50:10.725Z,70.90
2018-10-07T09:52:45.068Z,70.60
2018-10-07T09:55:19.708Z,71.10
2018-10-07T09:57:54.288Z,71.10
2018-10-07T10:00:34.641Z,70.60
2018-10-07T10:03:11.243Z,70.60
2018-10-07T10:05:46.305Z,71.10
2018-10-07T10:08:20.892Z,70.80
2018-10-07T10:10:55.601Z,71.10
2018-10-07T10:13:30.216Z,70.90
2018-10-07T10:16:05.037Z,70.80
2018-10-07T10:18:48.882Z,69.50
2018-10-07T10:21:43.322Z,69.80
2018-10-07T10:24:30.403Z,69.70
2018-10-07T10:27:53.013Z,69.40
2018-10-07T10:30:41.847Z,69.50
2018-10-07T10:33:25.098Z,69.00
2018-10-07T10:36:25.561Z,68.70
2018-10-07T10:39:11.554Z,68.10
2018-10-07T10:41:54.211Z,68.20
2018-10-07T10:45:01.291Z,69.00
2018-10-07T10:47:41.649Z,69.70
2018-10-07T10:50:37.350Z,70.40
2018-10-07T10:53:26.985Z,69.40
2018-10-07T10:56:16.678Z,69.90
2018-10-07T10:59:11.443Z,69.30
2018-10-07T11:02:29.531Z,68.80
2018-10-07T11:05:34.172Z,68.90
2018-10-07T11:11:38.578Z,69.90
2018-10-07T11:15:42.876Z,69.20
2018-10-07T11:19:30.114Z,68.80
2018-10-07T11:23:55.306Z,69.90
2018-10-07T11:27:16.111Z,70.00
2018-10-07T11:30:02.532Z,69.10
2018-10-07T11:32:48.516Z,67.60
2018-10-07T11:36:53.937Z,67.80
2018-10-07T11:39:46.298Z,67.50
2018-10-07T11:42:30.835Z,67.00
2018-10-07T11:45:21.789Z,68.40
2018-10-07T11:49:18.034Z,67.60
2018-10-07T11:52:16.703Z,66.70
2018-10-07T11:54:52.320Z,65.50
2018-10-07T11:57:28.106Z,66.70
2018-10-07T12:00:03.153Z,67.20
2018-10-07T12:02:37.787Z,67.00
2018-10-07T12:05:12.314Z,67.40
2018-10-07T12:07:47.005Z,65.60
2018-10-07T12:10:21.891Z,65.80
2018-10-07T12:12:57.094Z,66.50
2018-10-07T12:15:32.364Z,65.90
2018-10-07T12:18:07.499Z,65.60
2018-10-07T12:20:42.015Z,66.00
2018-10-07T12:23:16.888Z,66.50
2018-10-07T12:25:51.321Z,67.50
2018-10-07T12:28:28.494Z,66.80
2018-10-07T12:31:03.598Z,65.80
2018-10-07T12:33:38.633Z,67.20
2018-10-07T12:36:13.076Z,67.30
2018-10-07T12:38:47.913Z,67.10
2018-10-07T12:41:22.534Z,64.80
2018-10-07T12:43:57.229Z,64.00
2018-10-07T12:46:32.162Z,64.30
2018-10-07T12:49:07.080Z,64.20
2018-10-07T12:51:41.770Z,65.60
2018-10-07T12:54:16.704Z,64.70
2018-10-07T12:56:51.192Z,63.90
2018-10-07T12:59:26.013Z,64.40
2018-10-07T13:02:00.773Z,64.40
2018-10-07T13:04:35.535Z,65.00
2018-10-07T13:07:10.177Z,64.60
2018-10-07T13:09:44.779Z,64.10
2018-10-07T13:12:19.504Z,64.10
2018-10-07T13:14:54.223Z,64.00
2018-10-07T13:17:28.726Z,64.50
2018-10-07T13:20:03.719Z,64.70
2018-10-07T13:22:38.164Z,65.10
2018-10-07T13:25:12.600Z,64.70
2018-10-07T13:27:47.271Z,64.60
2018-10-07T13:30:21.946Z,64.80
2018-10-07T13:32:56.705Z,64.70
2018-10-07T13:35:31.555Z,64.80
2018-10-07T13:38:06.019Z,65.00
2018-10-07T13:40:40.648Z,65.50
2018-10-07T13:43:15.343Z,65.60
2018-10-07T13:45:50.257Z,65.80
2018-10-07T13:48:24.838Z,65.80
2018-10-07T13:50:59.770Z,66.30
2018-10-07T13:53:34.307Z,66.50
2018-10-07T13:56:09.293Z,66.60
2018-10-07T13:58:43.819Z,66.80
2018-10-07T14:01:18.699Z,67.20
2018-10-07T14:03:53.447Z,67.30
2018-10-07T14:06:28.434Z,67.60
2018-10-07T14:09:05.050Z,67.10
2018-10-07T14:11:39.358Z,66.80
2018-10-07T14:14:14.028Z,66.60
2018-10-07T14:16:49.053Z,66.80
2018-10-07T14:19:23.502Z,66.50
2018-10-07T14:21:58.985Z,66.70
2018-10-07T14:24:34.152Z,66.70
2018-10-07T14:27:08.956Z,66.70
2018-10-07T14:29:43.523Z,66.50
2018-10-07T14:32:18.178Z,66.70
2018-10-07T14:34:52.886Z,66.80
2018-10-07T14:37:27.841Z,66.50
2018-10-07T14:40:02.545Z,66.60
2018-10-07T14:42:36.928Z,66.70
2018-10-07T14:45:14.968Z,67.20
2018-10-07T14:47:49.486Z,67.50
2018-10-07T14:50:24.138Z,68.50
2018-10-07T14:52:58.597Z,69.00
2018-10-07T14:55:33.414Z,69.50
2018-10-07T14:58:08.029Z,70.50
2018-10-07T15:00:42.759Z,71.10
2018-10-07T15:03:17.593Z,71.10
2018-10-07T15:05:52.105Z,70.80
2018-10-07T15:08:27.162Z,71.80
2018-10-07T15:11:01.730Z,71.10
2018-10-07T15:13:36.561Z,70.10
2018-10-07T15:16:11.336Z,70.30
2018-10-07T15:18:45.962Z,70.10
2018-10-07T15:21:20.639Z,70.30
2018-10-07T15:23:55.293Z,70.00
2018-10-07T15:26:30.163Z,69.90
2018-10-07T15:29:04.958Z,69.70
2018-10-07T15:31:39.277Z,70.00
2018-10-07T15:34:14.231Z,70.20
2018-10-07T15:36:48.773Z,70.60
2018-10-07T15:39:23.511Z,71.10
2018-10-07T15:41:58.310Z,71.10
2018-10-07T15:44:32.979Z,71.30
2018-10-07T15:47:07.592Z,71.80
2018-10-07T15:49:42.216Z,71.70
2018-10-07T15:52:16.872Z,72.20
2018-10-07T15:54:51.697Z,72.60
2018-10-07T15:57:26.311Z,72.80
2018-10-07T16:00:01.090Z,73.10
2018-10-07T16:02:35.476Z,73.50
2018-10-07T16:05:10.488Z,74.00
2018-10-07T16:07:44.829Z,74.20
2018-10-07T16:10:19.725Z,74.40
2018-10-07T16:12:54.452Z,74.70
2018-10-07T16:15:29.270Z,75.30
2018-10-07T16:18:04.297Z,75.60
2018-10-07T16:20:38.722Z,76.00
2018-10-07T16:23:13.440Z,76.20
2018-10-07T16:25:48.113Z,76.50
2018-10-07T16:28:22.854Z,76.80
2018-10-07T16:30:57.818Z,76.90
2018-10-07T16:33:32.033Z,77.10
2018-10-07T16:36:06.925Z,77.50
2018-10-07T16:38:41.598Z,77.60
2018-10-07T16:41:16.289Z,77.50
2018-10-07T16:43:51.682Z,77.60
2018-10-07T16:46:26.481Z,77.70
2018-10-07T16:49:01.242Z,78.00
2018-10-07T16:51:35.918Z,78.30
2018-10-07T16:54:10.314Z,78.90
2018-10-07T16:56:45.010Z,79.20
2018-10-07T16:59:19.433Z,79.40
2018-10-07T17:01:54.054Z,79.70
2018-10-07T17:04:28.644Z,80.00
2018-10-07T17:07:03.301Z,80.30
2018-10-07T17:09:38.133Z,80.60
2018-10-07T17:12:12.861Z,81.00
2018-10-07T17:14:47.434Z,81.20
2018-10-07T17:17:21.998Z,81.40
2018-10-07T17:19:56.687Z,81.80
2018-10-07T17:22:31.557Z,82.20
2018-10-07T17:25:06.203Z,82.10
2018-10-07T17:27:40.564Z,82.10
2018-10-07T17:30:15.757Z,82.10
2018-10-07T17:32:50.466Z,82.10
2018-10-07T17:35:25.140Z,81.90
2018-10-07T17:38:00.704Z,81.90
2018-10-07T17:40:35.201Z,82.20
2018-10-07T17:43:09.469Z,82.40
2018-10-07T17:45:44.241Z,82.50
2018-10-07T17:48:19.170Z,82.70
2018-10-07T17:50:53.565Z,82.80
2018-10-07T17:53:28.425Z,82.90
2018-10-07T17:56:03.079Z,83.00
2018-10-07T17:58:37.546Z,83.30
2018-10-07T18:01:12.179Z,83.40
2018-10-07T18:03:46.821Z,83.60
2018-10-07T18:06:22.065Z,83.60
2018-10-07T18:08:56.917Z,83.60
2018-10-07T18:11:31.871Z,83.60
2018-10-07T18:14:06.241Z,83.70
2018-10-07T18:16:40.837Z,83.90
2018-10-07T18:19:15.498Z,83.90
2018-10-07T18:21:50.623Z,83.90
2018-10-07T18:24:25.036Z,83.90
2018-10-07T18:26:59.525Z,83.80
2018-10-07T18:29:34.375Z,83.90
2018-10-07T18:32:09.703Z,83.80
2018-10-07T18:34:45.294Z,83.90
2018-10-07T18:37:21.494Z,84.00
2018-10-07T18:39:56.869Z,84.10
2018-10-07T18:42:32.085Z,84.10
2018-10-07T18:45:08.501Z,84.30
2018-10-07T18:47:43.990Z,84.40
2018-10-07T18:50:20.332Z,84.60
2018-10-07T18:52:55.958Z,84.70
2018-10-07T18:55:31.953Z,84.70
2018-10-07T18:58:08.378Z,85.00
2018-10-07T19:00:44.501Z,84.90
2018-10-07T19:03:21.559Z,85.00
2018-10-07T19:05:58.237Z,85.20
2018-10-07T19:08:34.242Z,85.20
2018-10-07T19:11:10.596Z,85.30
2018-10-07T19:13:48.541Z,85.30
2018-10-07T19:16:23.721Z,85.40
2018-10-07T19:18:59.735Z,85.40
2018-10-07T19:21:35.153Z,85.40
2018-10-07T19:24:11.336Z,85.60
2018-10-07T19:26:47.333Z,85.60
2018-10-07T19:29:22.846Z,85.60
2018-10-07T19:31:58.169Z,85.80
2018-10-07T19:34:32.787Z,85.90
2018-10-07T19:37:08.486Z,86.00
2018-10-07T19:39:43.341Z,86.00
2018-10-07T19:42:17.691Z,86.00
2018-10-07T19:44:53.280Z,86.00
2018-10-07T19:47:28.835Z,86.70
2018-10-07T19:50:03.854Z,86.30
2018-10-07T19:52:38.696Z,86.90
2018-10-07T19:55:13.629Z,86.30
2018-10-07T19:57:48.230Z,86.40
2018-10-07T20:00:22.980Z,86.50
2018-10-07T20:02:57.618Z,86.50
2018-10-07T20:05:32.190Z,86.50
2018-10-07T20:08:06.974Z,86.50
2018-10-07T20:10:41.440Z,86.60
2018-10-07T20:13:16.224Z,86.50
2018-10-07T20:15:50.611Z,86.70
2018-10-07T20:18:25.419Z,86.80
2018-10-07T20:21:00.278Z,86.70
2018-10-07T20:23:35.343Z,86.70
2018-10-07T20:26:09.576Z,86.70
2018-10-07T20:28:44.325Z,86.70
2018-10-07T20:31:19.016Z,86.70
2018-10-07T20:33:53.419Z,87.40
2018-10-07T20:36:27.920Z,86.80
2018-10-07T20:39:02.719Z,86.80
2018-10-07T20:41:37.909Z,86.70
2018-10-07T20:44:12.190Z,86.80
2018-10-07T20:46:46.871Z,86.90
2018-10-07T20:49:21.192Z,86.80
2018-10-07T20:51:56.447Z,86.80
2018-10-07T20:54:32.419Z,86.80
2018-10-07T20:57:08.119Z,86.80
2018-10-07T20:59:43.678Z,87.40
2018-10-07T21:02:19.155Z,86.90
2018-10-07T21:04:54.006Z,86.90
2018-10-07T21:07:28.928Z,87.10
2018-10-07T21:10:03.714Z,87.10
2018-10-07T21:12:38.721Z,87.10
2018-10-07T21:15:14.365Z,87.10
2018-10-07T21:17:49.662Z,87.00
2018-10-07T21:20:24.704Z,87.10
2018-10-07T21:23:00.565Z,87.00
2018-10-07T21:25:35.760Z,87.10
2018-10-07T21:28:11.205Z,87.10
2018-10-07T21:30:46.589Z,87.10
2018-10-07T21:33:23.225Z,87.10
2018-10-07T21:35:58.401Z,87.10
2018-10-07T21:38:34.226Z,87.10
2018-10-07T21:41:08.512Z,87.10
2018-10-07T21:43:43.811Z,87.20
2018-10-07T21:46:18.921Z,87.10
2018-10-07T21:48:53.921Z,87.20
2018-10-07T21:51:29.729Z,87.20
2018-10-07T21:54:04.592Z,87.20
2018-10-07T21:56:39.642Z,87.30
2018-10-07T21:59:15.219Z,87.40
2018-10-07T22:01:50.216Z,87.70
2018-10-07T22:04:25.545Z,87.20
2018-10-07T22:07:00.325Z,87.30
2018-10-07T22:09:35.458Z,87.30
2018-10-07T22:12:10.388Z,87.30
2018-10-07T22:14:44.687Z,87.30
2018-10-07T22:17:19.484Z,87.30
2018-10-07T22:19:54.260Z,87.30
2018-10-07T22:22:29.020Z,87.30
2018-10-07T22:25:03.704Z,87.30
2018-10-07T22:27:38.243Z,87.40
2018-10-07T22:30:13.537Z,87.50
2018-10-07T22:32:48.445Z,87.50
2018-10-07T22:35:23.666Z,87.60
2018-10-07T22:37:57.986Z,87.60
2018-10-07T22:40:32.449Z,87.70
2018-10-07T22:43:07.070Z,87.80
2018-10-07T22:45:41.819Z,87.80
2018-10-07T22:48:16.343Z,87.70
2018-10-07T22:50:51.196Z,87.70
2018-10-07T22:53:25.502Z,87.60
2018-10-07T22:56:00.130Z,87.70
2018-10-07T22:58:34.825Z,87.70
2018-10-07T23:01:09.334Z,87.70
2018-10-07T23:03:44.346Z,87.60
2018-10-07T23:06:18.707Z,87.60
2018-10-07T23:08:53.210Z,87.60
2018-10-07T23:11:27.975Z,87.70
2018-10-07T23:14:02.659Z,87.80
2018-10-07T23:16:37.169Z,88.00
2018-10-07T23:19:11.822Z,88.70
2018-10-07T23:21:46.382Z,88.70
2018-10-07T23:24:21.020Z,88.60
2018-10-07T23:26:55.771Z,89.30
2018-10-07T23:29:30.339Z,88.50
2018-10-07T23:32:05.209Z,88.60
2018-10-07T23:34:39.957Z,88.50
2018-10-07T23:37:14.620Z,88.50
2018-10-07T23:39:49.383Z,88.50
2018-10-07T23:42:24.298Z,88.60
2018-10-07T23:44:58.751Z,90.20
2018-10-07T23:47:33.421Z,90.90
2018-10-07T23:50:07.956Z,91.00
2018-10-07T23:52:42.530Z,91.30
2018-10-07T23:55:17.265Z,91.40
2018-10-07T23:57:51.830Z,91.40
